createdAt,value
2023-01-09T00:02:27.971Z,3.50
2023-01-09T00:07:35.390Z,3.50
2023-01-09T00:13:33.501Z,3.48
2023-01-09T00:18:38.398Z,3.40
2023-01-09T00:23:42.110Z,3.40
2023-01-09T00:28:47.810Z,3.36
2023-01-09T00:34:00.245Z,3.30
2023-01-09T00:39:05.083Z,3.20
2023-01-09T00:44:19.569Z,3.20
2023-01-09T00:49:24.572Z,3.20
2023-01-09T00:54:30.326Z,3.20
2023-01-09T00:59:34.435Z,3.20
2023-01-09T01:04:57.314Z,3.30
2023-01-09T01:10:01.453Z,3.30
2023-01-09T01:15:07.727Z,3.30
2023-01-09T01:20:16.525Z,3.40
2023-01-09T01:25:20.499Z,3.50
2023-01-09T01:30:24.780Z,3.40
2023-01-09T01:35:28.561Z,3.40
2023-01-09T01:40:32.688Z,3.40
2023-01-09T01:45:36.555Z,3.40
2023-01-09T01:50:43.757Z,3.50
2023-01-09T01:56:21.340Z,3.50
2023-01-09T02:01:26.827Z,3.50
2023-01-09T02:06:33.931Z,3.42
2023-01-09T02:11:37.652Z,3.40
2023-01-09T02:17:09.624Z,3.50
2023-01-09T02:22:47.737Z,3.50
2023-01-09T02:28:40.928Z,3.50
2023-01-09T02:34:26.395Z,3.50
2023-01-09T02:40:22.709Z,3.48
2023-01-09T02:45:27.161Z,3.48
2023-01-09T02:51:01.871Z,3.50
2023-01-09T02:56:54.638Z,3.50
2023-01-09T03:02:58.146Z,3.48
2023-01-09T03:08:10.941Z,3.50
2023-01-09T03:13:20.101Z,3.50
2023-01-09T03:18:29.508Z,3.50
2023-01-09T03:23:56.723Z,3.50
2023-01-09T03:29:00.412Z,3.48
2023-01-09T03:34:04.643Z,3.50
2023-01-09T03:39:08.186Z,3.50
2023-01-09T03:44:12.082Z,3.50
2023-01-09T03:49:15.703Z,3.50
2023-01-09T03:54:19.745Z,3.50
2023-01-09T03:59:26.335Z,3.52
2023-01-09T04:04:30.163Z,3.60
2023-01-09T04:09:34.097Z,3.50
2023-01-09T04:14:38.111Z,3.60
2023-01-09T04:19:41.829Z,3.60
2023-01-09T04:24:45.660Z,3.60
2023-01-09T04:29:49.704Z,3.70
2023-01-09T04:34:55.159Z,3.80
2023-01-09T04:39:59.290Z,3.80
2023-01-09T04:45:04.258Z,3.86
2023-01-09T04:50:09.465Z,3.90
2023-01-09T04:55:13.315Z,3.80
2023-01-09T05:00:18.286Z,3.80
2023-01-09T05:05:22.124Z,3.80
2023-01-09T05:10:26.015Z,3.84
2023-01-09T05:15:31.491Z,3.90
2023-01-09T05:20:35.456Z,3.90
2023-01-09T05:25:39.321Z,3.80
2023-01-09T05:30:43.165Z,3.80
2023-01-09T05:35:47.103Z,3.74
2023-01-09T05:40:51.134Z,3.74
2023-01-09T05:45:54.956Z,3.80
2023-01-09T05:50:58.782Z,3.92
2023-01-09T05:56:02.902Z,4.00
2023-01-09T06:01:08.064Z,4.00
2023-01-09T06:06:11.888Z,4.00
2023-01-09T06:11:15.888Z,3.98
2023-01-09T06:16:19.853Z,3.90
2023-01-09T06:21:23.994Z,4.00
2023-01-09T06:26:27.894Z,4.00
2023-01-09T06:31:33.622Z,4.00
2023-01-09T06:36:37.401Z,4.08
2023-01-09T06:41:41.326Z,4.10
2023-01-09T06:46:45.166Z,4.10
2023-01-09T06:51:49.198Z,4.00
2023-01-09T06:56:52.923Z,4.00
2023-01-09T07:01:57.386Z,3.92
2023-01-09T07:07:01.675Z,4.00
2023-01-09T07:12:05.870Z,4.00
2023-01-09T07:17:13.893Z,4.06
2023-01-09T07:22:19.615Z,4.00
2023-01-09T07:27:23.327Z,4.00
2023-01-09T07:32:27.684Z,4.00
2023-01-09T07:37:31.389Z,4.00
2023-01-09T07:42:35.210Z,4.00
2023-01-09T07:47:42.319Z,4.02
2023-01-09T07:52:49.215Z,4.10
2023-01-09T07:57:53.709Z,4.16
2023-01-09T08:02:57.689Z,4.10
2023-01-09T08:08:02.437Z,4.10
2023-01-09T08:13:06.261Z,4.10
2023-01-09T08:18:10.391Z,4.20
2023-01-09T08:23:14.119Z,4.20
2023-01-09T08:28:18.532Z,4.30
2023-01-09T08:33:24.052Z,4.40
2023-01-09T08:38:28.284Z,4.50
2023-01-09T08:43:51.323Z,4.60
2023-01-09T08:48:55.359Z,4.70
2023-01-09T08:53:59.507Z,4.70
2023-01-09T08:59:03.802Z,4.60
2023-01-09T09:04:08.418Z,4.60
2023-01-09T09:09:13.632Z,4.70
2023-01-09T09:14:36.912Z,4.70
2023-01-09T09:19:44.353Z,4.80
2023-01-09T09:24:48.792Z,4.80
2023-01-09T09:29:53.256Z,4.70
2023-01-09T09:34:58.304Z,4.70
2023-01-09T09:40:17.433Z,4.80
2023-01-09T09:46:18.952Z,4.80
2023-01-09T09:51:41.474Z,4.80
2023-01-09T09:56:57.285Z,4.90
2023-01-09T10:02:44.838Z,4.80
2023-01-09T10:07:54.013Z,4.90
2023-01-09T10:13:23.322Z,4.86
2023-01-09T10:18:40.659Z,4.90
2023-01-09T10:24:24.399Z,4.84
2023-01-09T10:30:02.242Z,4.80
2023-01-09T10:35:47.006Z,4.80
2023-01-09T10:41:03.870Z,4.70
2023-01-09T10:46:28.871Z,4.70
2023-01-09T10:51:52.017Z,4.70
2023-01-09T10:57:11.452Z,4.60
2023-01-09T11:02:30.353Z,4.60
2023-01-09T11:07:39.999Z,4.60
2023-01-09T11:12:44.014Z,4.60
2023-01-09T11:17:51.872Z,4.60
2023-01-09T11:22:58.967Z,4.70
2023-01-09T11:28:02.762Z,4.70
2023-01-09T11:33:22.981Z,4.80
2023-01-09T11:38:28.675Z,4.80
2023-01-09T11:43:41.749Z,4.80
2023-01-09T11:48:58.385Z,4.70
2023-01-09T11:54:37.527Z,4.74
2023-01-09T11:59:45.679Z,4.70
2023-01-09T12:05:25.318Z,4.70
2023-01-09T12:11:06.234Z,4.70
2023-01-09T12:16:58.221Z,4.70
2023-01-09T12:22:30.898Z,4.70
2023-01-09T12:28:02.900Z,4.60
2023-01-09T12:33:20.240Z,4.60
2023-01-09T12:39:03.093Z,4.50
2023-01-09T12:45:04.283Z,4.60
2023-01-09T12:50:35.572Z,4.50
2023-01-09T12:55:56.516Z,4.50
2023-01-09T13:01:09.056Z,4.60
2023-01-09T13:06:26.359Z,4.66
2023-01-09T13:11:43.193Z,4.70
2023-01-09T13:16:54.134Z,4.70
2023-01-09T13:22:03.795Z,4.70
2023-01-09T13:27:23.860Z,4.60
2023-01-09T13:32:50.436Z,4.58
2023-01-09T13:37:59.813Z,4.54
2023-01-09T13:43:15.339Z,4.50
2023-01-09T13:48:42.303Z,4.50
2023-01-09T13:53:57.534Z,4.50
2023-01-09T13:59:32.273Z,4.50
2023-01-09T14:10:38.443Z,4.50
2023-01-09T14:16:01.724Z,4.50
2023-01-09T14:21:19.442Z,4.60
2023-01-09T14:27:01.873Z,4.60
2023-01-09T14:32:22.345Z,4.60
2023-01-09T14:37:39.426Z,4.60
2023-01-09T14:42:49.442Z,4.50
2023-01-09T14:48:24.634Z,4.44
2023-01-09T14:53:40.757Z,4.40
2023-01-09T14:59:06.460Z,4.40
2023-01-09T15:04:44.426Z,4.40
2023-01-09T15:09:53.560Z,4.40
2023-01-09T15:15:07.295Z,4.40
2023-01-09T15:20:54.711Z,4.30
2023-01-09T15:26:33.215Z,4.30
2023-01-09T15:32:07.252Z,4.30
2023-01-09T15:45:21.127Z,4.40
2023-01-09T15:51:17.098Z,4.40
2023-01-09T15:56:30.772Z,4.32
2023-01-09T16:01:45.614Z,4.30
2023-01-09T16:06:53.043Z,4.40
2023-01-09T16:12:05.118Z,4.40
2023-01-09T16:17:18.741Z,4.40
2023-01-09T16:22:39.303Z,4.40
2023-01-09T16:28:41.032Z,4.40
2023-01-09T16:34:28.090Z,4.50
2023-01-09T16:39:39.408Z,4.50
2023-01-09T16:44:46.345Z,4.50
2023-01-09T16:49:51.750Z,4.50
2023-01-09T16:55:09.645Z,4.50
2023-01-09T17:00:21.363Z,4.50
2023-01-09T17:05:26.243Z,4.58
2023-01-09T17:10:36.323Z,4.60
2023-01-09T17:15:44.331Z,4.62
2023-01-09T17:20:52.514Z,4.60
2023-01-09T17:26:18.651Z,4.60
2023-01-09T17:31:22.444Z,4.60
2023-01-09T17:36:32.746Z,4.60
2023-01-09T17:41:36.615Z,4.60
2023-01-09T17:46:44.181Z,4.60
2023-01-09T17:51:48.362Z,4.70
2023-01-09T17:56:53.727Z,4.70
2023-01-09T18:01:57.806Z,4.80
2023-01-09T18:07:02.102Z,4.80
2023-01-09T18:12:06.972Z,4.80
2023-01-09T18:17:13.681Z,4.80
2023-01-09T18:22:17.408Z,4.80
2023-01-09T18:27:22.801Z,4.80
2023-01-09T18:32:28.076Z,4.80
2023-01-09T18:37:31.852Z,4.90
2023-01-09T18:42:36.151Z,4.90
2023-01-09T18:47:40.377Z,4.98
2023-01-09T18:52:44.666Z,5.00
2023-01-09T18:57:49.410Z,5.00
2023-01-09T19:02:53.913Z,5.00
2023-01-09T19:07:58.433Z,5.00
2023-01-09T19:13:02.662Z,5.00
2023-01-09T19:18:08.039Z,5.10
2023-01-09T19:23:11.873Z,5.10
2023-01-09T19:28:15.537Z,5.20
2023-01-09T19:33:19.923Z,5.20
2023-01-09T19:38:24.069Z,5.20
2023-01-09T19:43:28.906Z,5.10
2023-01-09T19:48:33.554Z,5.18
2023-01-09T19:53:39.421Z,5.18
2023-01-09T19:58:54.245Z,5.20
2023-01-09T20:04:06.190Z,5.20
2023-01-09T20:09:13.097Z,5.20
2023-01-09T20:14:22.375Z,5.20
2023-01-09T20:19:31.993Z,5.20
2023-01-09T20:24:40.489Z,5.30
2023-01-09T20:29:45.341Z,5.30
2023-01-09T20:34:52.087Z,5.30
2023-01-09T20:39:58.273Z,5.30
2023-01-09T20:45:05.322Z,5.30
2023-01-09T20:50:12.360Z,5.40
2023-01-09T20:55:16.997Z,5.42
2023-01-09T21:00:24.091Z,5.50
2023-01-09T21:05:28.350Z,5.56
2023-01-09T21:10:32.271Z,5.60
2023-01-09T21:15:38.988Z,5.60
2023-01-09T21:20:42.681Z,5.62
2023-01-09T21:25:55.491Z,5.70
2023-01-09T21:31:02.924Z,5.70
2023-01-09T21:36:08.961Z,5.70
2023-01-09T21:41:31.177Z,5.72
2023-01-09T21:46:53.117Z,5.80
2023-01-09T21:51:57.612Z,5.90
2023-01-09T21:57:02.594Z,5.90
2023-01-09T22:02:06.365Z,5.90
2023-01-09T22:07:10.749Z,5.90
2023-01-09T22:12:14.498Z,5.90
2023-01-09T22:17:18.139Z,5.90
2023-01-09T22:22:22.012Z,5.92
2023-01-09T22:27:25.536Z,6.00
2023-01-09T22:32:29.253Z,5.94
2023-01-09T22:37:33.839Z,5.90
2023-01-09T22:42:37.922Z,5.90
2023-01-09T22:47:41.785Z,5.90
2023-01-09T22:52:45.671Z,5.80
2023-01-09T22:57:49.264Z,5.80
2023-01-09T23:04:08.357Z,5.80
2023-01-09T23:09:29.404Z,5.80
2023-01-09T23:14:37.915Z,5.80
2023-01-09T23:19:42.053Z,5.80
2023-01-09T23:24:45.743Z,5.80
2023-01-09T23:29:49.440Z,5.80
2023-01-09T23:34:53.455Z,5.80
2023-01-09T23:39:57.296Z,5.80
2023-01-09T23:45:01.225Z,5.90
2023-01-09T23:50:07.300Z,5.90
2023-01-09T23:55:11.414Z,5.90
